BLL weather

Billund Airport
Billund, South Denmark, Denmark

Public forecast

Using degrees Celsius for public forecast. Weather courtesy of forecast.io.

Current aviation weather report (METAR) for Billund Airport

Retrieved 2019/11/21 13:20 UTC (0 seconds ago):

EKBI 211320Z AUTO 07007KT 6000 -SHRA OVC013/// 04/04 Q1013

Aviation forecast (TAF) for Billund Airport

Retrieved 2019/11/21 12:00 UTC (1 hour ago):

TAF EKBI 211104Z 2112/2212 09008KT 6000 BKN015 BECMG 2112/2114 BKN012 BECMG 2114/2117 4000 BR BKN006 TEMPO 2117/2208 1200 RADZ BKN002 BECMG 2208/2210 16008KT 9999 NSW BKN012 TEMPO 2210/2212 BKN020